Portada
METAR-TAF:

METAR-TAF

Aeroports :

Oiapoque, Amapá, Brasil

latitud: 03-50N, longitud: 051-50W, altitud: 39 m

Observació

L'informe es va fer fa 25 minuts, a les 17:00 UTC
Vent 4 kt del Sud/Sud-Est
Temperatura 28°C
Humitat 74%
Pressió 1014 hPa
Visibilitat 10 km o més
Núvols disperses a una alçada de 3000 ft
Núvols disperses a una alçada de 9000 ft

METAR: SBOI 171700Z 15004KT 9999 SCT030 SCT090 28/23 Q1014

Hora: 14:25 (17:25 UTC)

Pronòstic

L'informe es va fer fa 8 hores i 55 minuts, a les 08:30 UTC
Pronòstic vàlid del 17 a les 12 UTC al 17 a les 24 UTC
Vent 5 kt del Sud/Sud-Est
Visibilitat 10 km o més
Núvols disperses a una alçada de 2000 ft
Evolucionant progressivament
l' 17 a les 18 UTC al 17 a les 20 UTC
Vent 5 kt del Est/Sud-Est
Escasses núvols a una alçada de 4000 ft

TAF: SBOI 170830Z 1712/1724 16005KT 9999 SCT020 TN29/1713Z TX32/1717Z BECMG 1718/1720 11005KT FEW040 RMK PGY

Observacions i pronòstics meteorològics de més de 4000 aeroports (METAR i TAF).

Les estacions disponibles són els punts grocs i vermells al mapa.

Posi el ratolí al punt desitjat per veure el nom de l'estació.

Feu clic per veure les observacions i els pronòstics meteorològics.

Per canviar el mapa: feu clic els botons verds amb una creu de color negre per apropar; al botó verd amb un guió per allunyar la imatge; o en les fletxes verdes per a mapes adjacents.


METAR-TAF: